Huvudsida
METAR-TAF:

METAR-TAF

Flygplatser :

Evenes, Norge

Harstad-Narviks flygplats. Evenes

latitud: 68-31N, longitud: 016-41E, höjd: 26 m

Aktuellt väderrapport

Denna rapport gjordes för 36 minuter sedan, klockan 17:50 UTC
Vind 5 kt från nord/nordväst
Temperatur 4°C
Fuktighet 70%
Tryck 1013 hPa
Sikt 10 km eller mer
Brutna moln på en höjd av 5300 ft

METAR: ENEV 221750Z 34005KT 9999 BKN053 04/M01 Q1013 RMK WIND 1400FT 03004KT

Tid: 20:26 (18:26 UTC)

Väderprognos

Denna rapport gjordes för 1 timme och 26 minuter sedan, klockan 17:00 UTC
Prognos gäller från 22 kl. 18 UTC till 22 kl. 21 UTC
Vind 5 kt från nord/nordväst
Sikt 10 km eller mer
Brutna moln på en höjd av 4000 ft

TAF: ENEV 221700Z 2218/2221 34005KT 9999 BKN040

Aktuella väderrapporter och prognoser från 4000 flygplatser (METAR- och TAF-rapporter).

De tillgängliga stationerna syns som gula och röda prickar på kartan.

För musen över prickarna för att se namnen på stationerna.

Klicka sedan för att få väderrapporter och prognoser.

För att ändra kartan: Klicka på de gröna knapparna med ett svart kors på för att zooma in; den gröna knappen med ett streck på för att zooma ut; eller på de gröna pilarna för angränsande kartor.


METAR-TAF: